createdAt,value
2022-12-25T00:01:33.907Z,8.60
2022-12-25T00:04:02.987Z,8.63
2022-12-25T00:06:30.960Z,8.62
2022-12-25T00:08:58.616Z,8.61
2022-12-25T00:11:26.426Z,8.59
2022-12-25T00:13:54.115Z,8.68
2022-12-25T00:16:24.742Z,8.71
2022-12-25T00:18:52.809Z,8.76
2022-12-25T00:21:22.619Z,8.81
2022-12-25T00:23:54.524Z,8.80
2022-12-25T00:26:23.461Z,8.79
2022-12-25T00:28:52.797Z,8.81
2022-12-25T00:31:21.354Z,8.85
2022-12-25T00:33:51.660Z,8.86
2022-12-25T00:36:21.080Z,8.89
2022-12-25T00:38:50.362Z,8.89
2022-12-25T00:41:40.920Z,8.95
2022-12-25T00:44:09.799Z,8.92
2022-12-25T00:46:37.684Z,8.91
2022-12-25T00:49:05.505Z,8.92
2022-12-25T00:51:33.650Z,8.85
2022-12-25T00:54:03.055Z,8.87
2022-12-25T00:56:30.986Z,8.82
2022-12-25T00:58:58.644Z,8.83
2022-12-25T01:01:26.407Z,8.84
2022-12-25T01:03:54.254Z,8.81
2022-12-25T01:06:22.113Z,8.80
2022-12-25T01:09:03.774Z,8.78
2022-12-25T01:11:33.312Z,8.77
2022-12-25T01:14:00.962Z,8.83
2022-12-25T01:16:29.653Z,8.77
2022-12-25T01:18:57.462Z,8.71
2022-12-25T01:21:25.336Z,8.72
2022-12-25T01:23:54.021Z,8.74
2022-12-25T01:26:23.422Z,8.72
2022-12-25T01:28:53.359Z,8.75
2022-12-25T01:31:22.686Z,8.62
2022-12-25T01:33:50.880Z,8.57
2022-12-25T01:36:20.476Z,8.56
2022-12-25T01:38:49.009Z,8.55
2022-12-25T01:41:18.447Z,8.52
2022-12-25T01:44:07.519Z,8.53
2022-12-25T01:46:35.570Z,8.49
2022-12-25T01:49:06.247Z,8.47
2022-12-25T01:51:39.937Z,8.47
2022-12-25T01:54:12.981Z,8.45
2022-12-25T01:56:43.111Z,8.52
2022-12-25T01:59:14.613Z,8.50
2022-12-25T02:01:42.459Z,8.47
2022-12-25T02:04:18.651Z,8.43
2022-12-25T02:06:47.936Z,8.46
2022-12-25T02:09:16.549Z,8.44
2022-12-25T02:11:59.222Z,8.45
2022-12-25T02:14:32.486Z,8.45
2022-12-25T02:17:08.339Z,8.44
2022-12-25T02:19:57.766Z,8.45
2022-12-25T02:22:40.323Z,8.47
2022-12-25T02:25:23.683Z,8.40
2022-12-25T02:28:07.165Z,8.36
2022-12-25T02:30:40.004Z,8.26
2022-12-25T02:33:31.670Z,8.23
2022-12-25T02:36:05.211Z,8.23
2022-12-25T02:38:36.357Z,8.26
2022-12-25T02:41:08.542Z,8.25
2022-12-25T02:44:02.248Z,8.22
2022-12-25T02:46:50.472Z,8.23
2022-12-25T02:49:42.145Z,8.22
2022-12-25T02:52:31.251Z,8.21
2022-12-25T02:55:21.721Z,8.24
2022-12-25T02:58:10.440Z,8.23
2022-12-25T03:01:00.899Z,8.25
2022-12-25T03:03:51.444Z,8.27
2022-12-25T03:06:40.140Z,8.31
2022-12-25T03:09:27.716Z,8.36
2022-12-25T03:12:00.810Z,8.43
2022-12-25T03:14:47.365Z,8.45
2022-12-25T03:17:17.830Z,8.47
2022-12-25T03:20:03.041Z,8.51
2022-12-25T03:22:50.085Z,8.47
2022-12-25T03:25:37.189Z,8.53
2022-12-25T03:28:07.198Z,8.51
2022-12-25T03:31:02.323Z,8.49
2022-12-25T03:33:46.252Z,8.56
2022-12-25T03:36:22.307Z,8.62
2022-12-25T03:39:23.249Z,8.69
2022-12-25T03:42:26.368Z,8.60
2022-12-25T03:45:24.099Z,8.57
2022-12-25T03:48:12.140Z,8.54
2022-12-25T03:51:03.618Z,8.59
2022-12-25T03:53:54.893Z,8.50
2022-12-25T03:56:40.540Z,8.54
2022-12-25T03:59:25.978Z,8.54
2022-12-25T04:02:11.455Z,8.41
2022-12-25T04:04:56.934Z,8.34
2022-12-25T04:07:43.725Z,8.30
2022-12-25T04:10:29.559Z,8.22
2022-12-25T04:13:15.465Z,8.16
2022-12-25T04:16:00.870Z,8.10
2022-12-25T04:18:46.175Z,8.05
2022-12-25T04:21:31.321Z,7.99
2022-12-25T04:24:17.866Z,7.96
2022-12-25T04:27:03.120Z,7.95
2022-12-25T04:29:48.757Z,7.98
2022-12-25T04:32:33.910Z,8.02
2022-12-25T04:35:19.265Z,8.02
2022-12-25T04:37:47.080Z,8.04
2022-12-25T04:40:16.491Z,8.05
2022-12-25T04:42:44.202Z,8.08
2022-12-25T04:45:12.577Z,8.08
2022-12-25T04:47:40.346Z,8.08
2022-12-25T04:50:09.695Z,8.08
2022-12-25T04:52:38.066Z,8.09
2022-12-25T04:55:07.895Z,8.06
2022-12-25T04:57:37.912Z,8.08
2022-12-25T05:00:08.690Z,8.08
2022-12-25T05:02:36.904Z,8.05
2022-12-25T05:05:05.092Z,8.10
2022-12-25T05:07:34.147Z,8.09
2022-12-25T05:10:01.820Z,8.09
2022-12-25T05:12:29.549Z,8.13
2022-12-25T05:14:59.006Z,8.13
2022-12-25T05:17:26.805Z,8.16
2022-12-25T05:19:54.498Z,8.19
2022-12-25T05:22:22.207Z,8.18
2022-12-25T05:24:49.968Z,8.25
2022-12-25T05:27:17.669Z,8.30
2022-12-25T05:29:45.418Z,8.32
2022-12-25T05:32:14.748Z,8.38
2022-12-25T05:34:42.388Z,8.42
2022-12-25T05:37:10.179Z,8.43
2022-12-25T05:39:38.044Z,8.46
2022-12-25T05:42:05.784Z,8.45
2022-12-25T05:44:33.718Z,8.44
2022-12-25T05:47:01.894Z,8.37
2022-12-25T05:49:31.544Z,8.31
2022-12-25T05:51:59.304Z,8.27
2022-12-25T05:54:27.039Z,8.27
2022-12-25T05:56:54.757Z,8.27
2022-12-25T05:59:22.800Z,8.27
2022-12-25T06:01:50.616Z,8.24
2022-12-25T06:04:18.456Z,8.19
2022-12-25T06:06:47.666Z,8.12
2022-12-25T06:09:15.288Z,8.13
2022-12-25T06:11:43.080Z,8.16
2022-12-25T06:14:13.111Z,8.20
2022-12-25T06:16:41.335Z,8.27
2022-12-25T06:19:09.394Z,8.28
2022-12-25T06:21:37.294Z,8.39
2022-12-25T06:24:06.910Z,8.41
2022-12-25T06:26:34.740Z,8.41
2022-12-25T06:29:02.571Z,8.41
2022-12-25T06:31:30.845Z,8.35
2022-12-25T06:33:58.786Z,8.33
2022-12-25T06:36:29.188Z,8.32
2022-12-25T06:38:57.854Z,8.33
2022-12-25T06:41:28.547Z,8.30
2022-12-25T06:43:57.938Z,8.28
2022-12-25T06:46:29.030Z,8.26
2022-12-25T06:48:58.467Z,8.31
2022-12-25T06:51:28.313Z,8.32
2022-12-25T06:53:56.767Z,8.34
2022-12-25T06:56:28.341Z,8.37
2022-12-25T06:58:58.596Z,8.37
2022-12-25T07:01:29.975Z,8.37
2022-12-25T07:04:00.528Z,8.37
2022-12-25T07:06:29.275Z,8.43
2022-12-25T07:08:57.251Z,8.40
2022-12-25T07:11:25.604Z,8.40
2022-12-25T07:13:54.627Z,8.40
2022-12-25T07:16:22.430Z,8.40
2022-12-25T07:18:50.407Z,8.41
2022-12-25T07:21:20.324Z,8.38
2022-12-25T07:23:50.670Z,8.39
2022-12-25T07:26:19.347Z,8.38
2022-12-25T07:28:47.079Z,8.32
2022-12-25T07:31:17.983Z,8.29
2022-12-25T07:33:46.497Z,8.29
2022-12-25T07:36:15.463Z,8.29
2022-12-25T07:38:43.732Z,8.31
2022-12-25T07:41:12.894Z,8.35
2022-12-25T07:43:41.256Z,8.29
2022-12-25T07:46:09.868Z,8.30
2022-12-25T07:48:39.178Z,8.34
2022-12-25T07:51:08.832Z,8.33
2022-12-25T07:53:37.119Z,8.34
2022-12-25T07:56:07.093Z,8.39
2022-12-25T07:58:35.785Z,8.46
2022-12-25T08:01:05.648Z,8.55
2022-12-25T08:03:34.902Z,8.60
2022-12-25T08:06:09.022Z,8.60
2022-12-25T08:08:37.187Z,8.64
2022-12-25T08:11:07.662Z,8.70
2022-12-25T08:13:36.630Z,8.73
2022-12-25T08:16:08.691Z,8.72
2022-12-25T08:18:37.738Z,8.71
2022-12-25T08:21:09.691Z,8.77
2022-12-25T08:23:39.861Z,8.78
2022-12-25T08:26:09.186Z,8.77
2022-12-25T08:28:37.410Z,8.77
2022-12-25T08:31:10.568Z,8.87
2022-12-25T08:33:39.087Z,8.86
2022-12-25T08:36:10.400Z,8.89
2022-12-25T08:38:38.324Z,8.87
2022-12-25T08:41:06.352Z,8.91
2022-12-25T08:43:34.142Z,8.95
2022-12-25T08:46:02.211Z,9.03
2022-12-25T08:48:29.968Z,9.08
2022-12-25T08:50:58.206Z,9.27
2022-12-25T08:53:27.851Z,9.29
2022-12-25T08:56:00.094Z,9.18
2022-12-25T08:58:28.705Z,9.10
2022-12-25T09:00:57.106Z,9.09
2022-12-25T09:03:25.456Z,9.05
2022-12-25T09:05:53.674Z,9.19
2022-12-25T09:08:21.785Z,9.18
2022-12-25T09:10:51.025Z,9.19
2022-12-25T09:13:18.876Z,9.25
2022-12-25T09:15:46.615Z,9.14
2022-12-25T09:18:14.610Z,9.11
2022-12-25T09:20:42.292Z,9.08
2022-12-25T09:23:13.979Z,9.07
2022-12-25T09:25:42.206Z,9.11
2022-12-25T09:28:11.511Z,9.09
2022-12-25T09:30:39.451Z,9.10
2022-12-25T09:33:07.414Z,9.17
2022-12-25T09:35:35.589Z,9.29
2022-12-25T09:38:03.298Z,9.33
2022-12-25T09:40:33.027Z,9.32
2022-12-25T09:43:02.761Z,9.32
2022-12-25T09:45:36.839Z,9.42
2022-12-25T09:48:05.387Z,9.48
2022-12-25T09:50:43.406Z,9.63
2022-12-25T09:53:16.737Z,9.75
2022-12-25T09:55:51.881Z,9.88
2022-12-25T09:58:19.691Z,10.03
2022-12-25T10:00:57.307Z,10.06
2022-12-25T10:03:36.193Z,10.15
2022-12-25T10:06:19.032Z,10.36
2022-12-25T10:09:12.816Z,10.33
2022-12-25T10:12:02.243Z,10.34
2022-12-25T10:14:40.694Z,10.55
2022-12-25T10:17:27.211Z,10.55
2022-12-25T10:20:01.592Z,10.61
2022-12-25T10:22:37.087Z,10.59
2022-12-25T10:25:07.099Z,10.84
2022-12-25T10:27:38.057Z,10.74
2022-12-25T10:30:14.388Z,10.66
2022-12-25T10:32:44.645Z,10.72
2022-12-25T10:35:13.891Z,10.63
2022-12-25T10:37:42.593Z,10.74
2022-12-25T10:40:28.775Z,10.78
2022-12-25T10:43:03.825Z,10.82
2022-12-25T10:45:31.609Z,10.73
2022-12-25T10:48:07.610Z,10.82
2022-12-25T10:50:43.342Z,10.96
2022-12-25T10:53:22.152Z,10.98
2022-12-25T10:55:58.517Z,11.09
2022-12-25T10:58:26.573Z,11.10
2022-12-25T11:00:57.029Z,10.92
2022-12-25T11:03:29.404Z,10.82
2022-12-25T11:05:57.389Z,10.81
2022-12-25T11:08:27.661Z,10.87
2022-12-25T11:10:58.322Z,10.81
2022-12-25T11:13:28.395Z,10.78
2022-12-25T11:16:05.877Z,10.71
2022-12-25T11:18:44.505Z,10.76
2022-12-25T11:21:18.275Z,10.83
2022-12-25T11:23:47.995Z,10.93
2022-12-25T11:26:17.115Z,10.92
2022-12-25T11:28:46.497Z,10.88
2022-12-25T11:31:19.037Z,10.79
2022-12-25T11:33:56.044Z,10.76
2022-12-25T11:36:30.783Z,10.82
2022-12-25T11:39:02.827Z,10.91
2022-12-25T11:41:35.157Z,10.84
2022-12-25T11:44:09.574Z,10.90
2022-12-25T11:46:43.289Z,11.00
2022-12-25T11:49:16.524Z,10.92
2022-12-25T11:51:47.472Z,10.92
2022-12-25T11:54:21.256Z,10.82
2022-12-25T11:56:49.838Z,11.15
2022-12-25T11:59:23.957Z,11.00
2022-12-25T12:01:55.927Z,10.99
2022-12-25T12:04:35.207Z,10.97
2022-12-25T12:07:18.121Z,11.17
2022-12-25T12:09:56.660Z,11.15
2022-12-25T12:12:30.671Z,11.24
2022-12-25T12:15:04.736Z,11.43
2022-12-25T12:17:33.774Z,11.61
2022-12-25T12:20:13.839Z,11.58
2022-12-25T12:22:51.483Z,11.45
2022-12-25T12:25:19.875Z,11.43
2022-12-25T12:27:57.291Z,11.40
2022-12-25T12:30:32.483Z,11.43
2022-12-25T12:33:02.824Z,11.28
2022-12-25T12:35:35.714Z,11.33
2022-12-25T12:38:07.704Z,11.47
2022-12-25T12:40:38.814Z,11.62
2022-12-25T12:43:23.254Z,11.62
2022-12-25T12:45:56.265Z,11.68
2022-12-25T12:48:27.733Z,11.74
2022-12-25T12:51:07.205Z,11.81
2022-12-25T12:53:35.944Z,11.85
2022-12-25T12:56:12.469Z,11.94
2022-12-25T12:58:46.200Z,11.94
2022-12-25T13:01:25.513Z,12.08
2022-12-25T13:04:15.167Z,12.01
2022-12-25T13:06:50.139Z,12.33
2022-12-25T13:09:34.031Z,11.98
2022-12-25T13:12:06.273Z,12.01
2022-12-25T13:14:34.122Z,12.11
2022-12-25T13:17:02.074Z,11.90
2022-12-25T13:19:30.480Z,11.80
2022-12-25T13:22:01.009Z,11.94
2022-12-25T13:24:30.890Z,11.82
2022-12-25T13:26:59.702Z,11.95
2022-12-25T13:29:31.523Z,11.91
2022-12-25T13:32:01.397Z,11.76
2022-12-25T13:34:32.450Z,11.70
2022-12-25T13:37:08.409Z,11.70
2022-12-25T13:39:37.765Z,11.65
2022-12-25T13:42:07.106Z,11.62
2022-12-25T13:44:44.073Z,11.57
2022-12-25T13:47:18.550Z,11.54
2022-12-25T13:49:47.272Z,11.50
2022-12-25T13:52:19.039Z,11.52
2022-12-25T13:54:57.504Z,11.50
2022-12-25T13:57:29.552Z,11.63
2022-12-25T13:59:58.072Z,11.67
2022-12-25T14:02:31.260Z,11.64
2022-12-25T14:04:59.234Z,11.81
2022-12-25T14:07:28.957Z,11.69
2022-12-25T14:10:01.399Z,11.82
2022-12-25T14:12:31.159Z,11.72
2022-12-25T14:15:00.235Z,11.79
2022-12-25T14:17:28.397Z,11.85
2022-12-25T14:20:07.907Z,11.77
2022-12-25T14:22:38.647Z,11.68
2022-12-25T14:25:16.242Z,11.67
2022-12-25T14:27:50.353Z,11.81
2022-12-25T14:30:19.147Z,11.71
2022-12-25T14:32:51.734Z,11.67
2022-12-25T14:35:23.597Z,11.63
2022-12-25T14:37:59.825Z,11.64
2022-12-25T14:40:31.319Z,11.65
2022-12-25T14:43:02.052Z,11.68
2022-12-25T14:45:32.871Z,11.67
2022-12-25T14:48:03.040Z,11.67
2022-12-25T14:50:36.417Z,11.60
2022-12-25T14:53:07.146Z,11.57
2022-12-25T14:55:34.908Z,11.57
2022-12-25T14:58:05.485Z,11.58
2022-12-25T15:01:23.720Z,11.64
2022-12-25T15:03:51.786Z,11.64
2022-12-25T15:06:21.703Z,11.76
2022-12-25T15:08:58.937Z,11.76
2022-12-25T15:11:27.376Z,11.73
2022-12-25T15:13:55.201Z,11.69
2022-12-25T15:16:25.575Z,11.95
2022-12-25T15:18:54.531Z,12.02
2022-12-25T15:21:27.007Z,11.87
2022-12-25T15:23:55.879Z,11.78
2022-12-25T15:26:25.718Z,11.79
2022-12-25T15:28:54.144Z,11.69
2022-12-25T15:31:27.357Z,11.54
2022-12-25T15:33:56.364Z,11.46
2022-12-25T15:36:25.448Z,11.34
2022-12-25T15:38:54.015Z,11.32
2022-12-25T15:41:43.501Z,11.24
2022-12-25T15:44:12.990Z,11.14
2022-12-25T15:46:41.258Z,11.08
2022-12-25T15:49:10.286Z,11.13
2022-12-25T15:51:38.169Z,11.18
2022-12-25T15:54:05.914Z,11.09
2022-12-25T15:56:41.747Z,11.07
2022-12-25T15:59:10.754Z,11.05
2022-12-25T16:01:38.826Z,11.04
2022-12-25T16:04:06.760Z,11.06
2022-12-25T16:06:34.592Z,11.08
2022-12-25T16:09:02.381Z,11.02
2022-12-25T16:11:30.268Z,11.02
2022-12-25T16:13:59.461Z,10.92
2022-12-25T16:16:27.266Z,10.88
2022-12-25T16:18:55.095Z,10.83
2022-12-25T16:21:23.241Z,10.77
2022-12-25T16:23:51.461Z,10.73
2022-12-25T16:26:19.378Z,10.70
2022-12-25T16:28:47.051Z,10.77
2022-12-25T16:31:16.246Z,10.86
2022-12-25T16:33:43.944Z,10.92
2022-12-25T16:36:11.999Z,10.91
2022-12-25T16:38:39.700Z,11.06
2022-12-25T16:41:09.426Z,10.96
2022-12-25T16:43:37.245Z,10.94
2022-12-25T16:46:09.938Z,11.00
2022-12-25T16:48:39.152Z,11.03
2022-12-25T16:51:10.270Z,10.86
2022-12-25T16:53:38.092Z,10.79
2022-12-25T16:56:07.246Z,10.72
2022-12-25T16:58:34.997Z,10.60
2022-12-25T17:01:07.243Z,10.54
2022-12-25T17:03:35.504Z,10.54
2022-12-25T17:06:05.167Z,10.51
2022-12-25T17:08:32.942Z,10.50
2022-12-25T17:11:04.864Z,10.56
2022-12-25T17:13:32.631Z,10.50
2022-12-25T17:16:00.429Z,10.36
2022-12-25T17:18:28.240Z,10.28
2022-12-25T17:20:56.253Z,10.23
2022-12-25T17:23:25.358Z,10.21
2022-12-25T17:25:53.038Z,10.36
2022-12-25T17:28:20.766Z,10.21
2022-12-25T17:30:48.441Z,10.15
2022-12-25T17:33:16.143Z,10.13
2022-12-25T17:35:43.981Z,10.15
2022-12-25T17:38:11.717Z,10.04
2022-12-25T17:40:40.921Z,9.91
2022-12-25T17:43:08.708Z,9.87
2022-12-25T17:45:37.525Z,9.90
2022-12-25T17:48:05.360Z,10.01
2022-12-25T17:50:39.190Z,10.01
2022-12-25T17:53:08.895Z,10.08
2022-12-25T17:55:41.095Z,10.05
2022-12-25T17:58:09.149Z,10.19
2022-12-25T18:01:39.163Z,10.23
2022-12-25T18:04:07.443Z,10.23
2022-12-25T18:06:36.578Z,10.25
2022-12-25T18:09:06.422Z,10.24
2022-12-25T18:11:39.977Z,10.15
2022-12-25T18:14:09.078Z,10.19
2022-12-25T18:16:39.809Z,10.18
2022-12-25T18:19:08.008Z,10.10
2022-12-25T18:21:36.069Z,10.01
2022-12-25T18:24:04.354Z,9.95
2022-12-25T18:26:32.724Z,9.90
2022-12-25T18:29:01.850Z,9.83
2022-12-25T18:31:31.037Z,9.73
2022-12-25T18:33:59.890Z,9.55
2022-12-25T18:36:30.157Z,9.37
2022-12-25T18:38:59.213Z,9.32
2022-12-25T18:41:28.398Z,9.36
2022-12-25T18:43:56.305Z,9.16
2022-12-25T18:46:27.059Z,8.97
2022-12-25T18:48:56.096Z,8.99
2022-12-25T18:51:24.234Z,9.14
2022-12-25T18:53:52.175Z,9.16
2022-12-25T18:56:21.016Z,9.19
2022-12-25T18:58:49.426Z,9.22
2022-12-25T19:01:20.180Z,9.26
2022-12-25T19:03:50.531Z,9.29
2022-12-25T19:06:19.587Z,9.30
2022-12-25T19:08:47.301Z,9.31
2022-12-25T19:11:15.759Z,9.42
2022-12-25T19:13:44.065Z,9.52
2022-12-25T19:16:12.207Z,9.62
2022-12-25T19:18:40.635Z,9.64
2022-12-25T19:21:10.130Z,9.71
2022-12-25T19:23:38.795Z,9.74
2022-12-25T19:26:07.328Z,9.77
2022-12-25T19:28:35.711Z,9.79
2022-12-25T19:31:07.535Z,9.77
2022-12-25T19:33:36.889Z,9.76
2022-12-25T19:36:06.469Z,9.71
2022-12-25T19:38:36.317Z,9.71
2022-12-25T19:41:07.145Z,9.70
2022-12-25T19:43:37.281Z,9.63
2022-12-25T19:46:07.000Z,9.57
2022-12-25T19:48:37.039Z,9.55
2022-12-25T19:51:05.239Z,9.62
2022-12-25T19:53:32.904Z,9.71
2022-12-25T19:56:03.932Z,9.74
2022-12-25T19:58:31.740Z,9.79
2022-12-25T20:01:00.395Z,9.86
2022-12-25T20:03:28.537Z,9.98
2022-12-25T20:05:57.527Z,10.04
2022-12-25T20:08:25.962Z,10.03
2022-12-25T20:10:53.903Z,10.00
2022-12-25T20:13:23.300Z,9.88
2022-12-25T20:15:51.615Z,9.86
2022-12-25T20:18:19.349Z,10.08
2022-12-25T20:20:47.256Z,10.42
2022-12-25T20:23:15.220Z,10.81
2022-12-25T20:25:43.031Z,10.72
2022-12-25T20:28:10.958Z,10.95
2022-12-25T20:30:41.050Z,11.01
2022-12-25T20:33:10.145Z,11.27
2022-12-25T20:35:38.055Z,11.37
2022-12-25T20:38:05.749Z,11.33
2022-12-25T20:40:52.923Z,11.29
2022-12-25T20:43:21.200Z,11.02
2022-12-25T20:45:52.610Z,10.74
2022-12-25T20:48:20.414Z,10.66
2022-12-25T20:50:48.529Z,10.53
2022-12-25T20:53:17.234Z,10.47
2022-12-25T20:55:46.371Z,10.62
2022-12-25T20:58:14.907Z,10.69
2022-12-25T21:00:44.365Z,10.78
2022-12-25T21:03:13.820Z,10.88
2022-12-25T21:05:49.839Z,10.96
2022-12-25T21:08:18.160Z,10.90
2022-12-25T21:10:50.412Z,10.71
2022-12-25T21:13:18.346Z,10.94
2022-12-25T21:15:46.560Z,10.90
2022-12-25T21:18:16.152Z,10.90
2022-12-25T21:20:44.534Z,10.96
2022-12-25T21:23:12.214Z,10.98
2022-12-25T21:25:41.814Z,11.13
2022-12-25T21:28:09.683Z,11.26
2022-12-25T21:30:37.648Z,11.42
2022-12-25T21:33:23.392Z,11.55
2022-12-25T21:35:52.544Z,11.34
2022-12-25T21:38:20.399Z,11.05
2022-12-25T21:40:48.607Z,10.88
2022-12-25T21:43:16.339Z,10.78
2022-12-25T21:45:44.209Z,10.72
2022-12-25T21:48:46.104Z,10.86
2022-12-25T21:51:38.466Z,11.31
2022-12-25T21:54:16.410Z,10.89
2022-12-25T21:56:47.045Z,11.07
2022-12-25T21:59:41.893Z,10.95
2022-12-25T22:02:11.894Z,10.70
2022-12-25T22:04:43.537Z,10.80
2022-12-25T22:07:32.629Z,11.06
2022-12-25T22:10:00.677Z,11.24
2022-12-25T22:12:49.342Z,10.93
2022-12-25T22:15:24.207Z,10.76
2022-12-25T22:18:11.383Z,11.11
2022-12-25T22:20:39.690Z,11.01
2022-12-25T22:23:08.791Z,11.16
2022-12-25T22:25:36.747Z,11.24
2022-12-25T22:28:06.046Z,11.22
2022-12-25T22:30:44.398Z,11.29
2022-12-25T22:33:14.882Z,10.92
2022-12-25T22:35:49.206Z,10.76
2022-12-25T22:38:34.773Z,11.01
2022-12-25T22:41:06.203Z,11.12
2022-12-25T22:44:06.765Z,11.04
2022-12-25T22:46:21.999Z,11.15
2022-12-25T22:48:54.681Z,11.16
2022-12-25T22:51:31.344Z,11.27
2022-12-25T22:54:04.084Z,11.03
2022-12-25T22:56:38.049Z,11.20
2022-12-25T22:59:27.295Z,11.38
2022-12-25T23:02:08.455Z,11.17
2022-12-25T23:04:55.720Z,11.34
2022-12-25T23:07:23.414Z,11.68
2022-12-25T23:09:52.666Z,11.58
2022-12-25T23:15:35.058Z,11.87
2022-12-25T23:18:34.408Z,11.68
2022-12-25T23:21:21.286Z,11.78
2022-12-25T23:24:07.124Z,11.91
2022-12-25T23:26:36.874Z,11.98
2022-12-25T23:29:22.857Z,11.98
2022-12-25T23:31:57.902Z,11.96
2022-12-25T23:34:26.495Z,11.92
2022-12-25T23:37:04.399Z,11.83
2022-12-25T23:39:44.552Z,11.92
2022-12-25T23:42:13.903Z,11.87
2022-12-25T23:44:54.784Z,11.96
2022-12-25T23:47:27.808Z,11.83
2022-12-25T23:49:55.588Z,11.82
2022-12-25T23:52:25.385Z,12.02
2022-12-25T23:54:53.133Z,12.03
2022-12-25T23:57:22.174Z,11.83
2022-12-25T23:59:53.846Z,11.84
